Time;durP1;ratioP1;P1;durP2;ratioP2;P2;SDS_P1;SDS_P2;PMS_P1;PMS_P2;Temp;Humidity;BMP_temperature;BMP_pressure;BME280_temperature;BME280_humidity;BME280_pressure;Samples;Min_cycle;Max_cycle;Signal;HPM_P1;HPM_P2
2022/08/12 00:44:52;;;;;;;10.90;9.80;;;;;;;12.61;100.00;99446.73;105236;1268;75614;-71
2022/08/12 00:47:20;;;;;;;10.10;9.10;;;;;;;12.60;100.00;99445.72;105289;1268;69309;-69
2022/08/12 00:49:48;;;;;;;9.70;8.90;;;;;;;12.59;100.00;99445.77;105239;1268;73229;-70
2022/08/12 00:52:17;;;;;;;9.70;8.80;;;;;;;12.58;100.00;99444.75;105279;1268;61266;-70
2022/08/12 00:54:49;;;;;;;10.70;9.70;;;;;;;12.58;100.00;99442.83;105016;1272;61153;-70
2022/08/12 00:57:21;;;;;;;10.30;9.40;;;;;;;12.57;100.00;99439.10;105402;1268;75330;-70
2022/08/12 00:59:49;;;;;;;9.60;8.80;;;;;;;12.57;100.00;99436.66;105420;1268;68662;-72
2022/08/12 01:02:32;;;;;;;10.40;9.40;;;;;;;12.56;100.00;99437.25;105302;1268;73519;-70
2022/08/12 01:13:31;;;;;;;10.90;9.90;;;;;;;12.54;100.00;99435.23;105230;1271;69385;-71
2022/08/12 01:16:01;;;;;;;12.20;11.00;;;;;;;12.54;100.00;99436.88;105274;1271;71648;-70
2022/08/12 01:18:33;;;;;;;10.60;9.50;;;;;;;12.52;100.00;99437.50;105196;1271;62079;-70
2022/08/12 01:21:42;;;;;;;12.20;11.10;;;;;;;12.50;100.00;99434.95;105330;1271;61140;-70
2022/08/12 01:24:36;;;;;;;14.40;11.50;;;;;;;12.50;100.00;99432.29;104998;1271;74863;-70
2022/08/12 01:27:08;;;;;;;14.20;12.70;;;;;;;12.48;100.00;99428.33;105240;1271;69226;-70
2022/08/12 01:29:42;;;;;;;14.30;12.70;;;;;;;12.47;100.00;99424.14;104936;1273;73248;-70
2022/08/12 01:32:13;;;;;;;14.90;13.40;;;;;;;12.45;100.00;99424.29;105232;1271;61247;-70
2022/08/12 01:35:00;;;;;;;15.70;14.20;;;;;;;12.45;100.00;99422.14;105250;1271;61352;-70
2022/08/12 01:37:29;;;;;;;15.30;14.00;;;;;;;12.44;100.00;99419.88;105303;1271;74190;-70
2022/08/12 01:39:59;;;;;;;15.50;14.20;;;;;;;12.44;100.00;99420.20;105273;1271;68613;-70
2022/08/12 01:42:32;;;;;;;16.80;15.20;;;;;;;12.44;100.00;99417.39;105334;1269;72627;-70
2022/08/12 01:45:00;;;;;;;21.70;18.50;;;;;;;12.44;100.00;99417.02;104999;1271;61290;-70
2022/08/12 01:47:29;;;;;;;19.10;17.40;;;;;;;12.43;100.00;99415.29;104995;1271;61352;-69
2022/08/12 01:50:03;;;;;;;20.10;18.30;;;;;;;12.42;100.00;99421.06;105176;1271;74340;-69
2022/08/12 01:52:35;;;;;;;21.10;19.10;;;;;;;12.41;100.00;99420.80;105289;1271;68688;-69
2022/08/12 01:55:05;;;;;;;20.60;18.70;;;;;;;12.40;100.00;99419.27;105046;1271;74855;-71
2022/08/12 01:57:43;;;;;;;21.50;19.40;;;;;;;12.38;100.00;99422.24;104983;1269;61634;-70
2022/08/12 02:00:43;;;;;;;16.10;14.70;;;;;;;12.35;100.00;99423.69;105126;1271;61294;-69
2022/08/12 02:03:30;;;;;;;14.90;13.30;;;;;;;12.29;100.00;99422.81;104919;1271;75355;-70
2022/08/12 02:12:12;;;;;;;11.90;10.90;;;;;;;12.01;100.00;99414.59;104917;1271;61239;-70
2022/08/12 02:15:02;;;;;;;11.50;10.40;;;;;;;11.93;100.00;99418.50;105023;1271;61229;-71
2022/08/12 02:17:53;;;;;;;16.90;15.30;;;;;;;11.88;100.00;99415.42;105251;1271;75505;-70
2022/08/12 02:20:31;;;;;;;15.30;13.20;;;;;;;11.84;100.00;99419.89;105235;1270;69196;-70
2022/08/12 02:23:02;;;;;;;15.90;14.40;;;;;;;11.83;100.00;99422.81;105237;1271;73393;-70
2022/08/12 02:25:35;;;;;;;19.40;17.40;;;;;;;11.83;100.00;99418.23;105274;1271;61294;-70
2022/08/12 02:28:03;;;;;;;19.20;17.40;;;;;;;11.83;100.00;99412.52;105216;1271;61225;-70
2022/08/12 02:30:31;;;;;;;18.00;16.30;;;;;;;11.82;100.00;99408.67;105260;1271;75145;-70
2022/08/12 02:33:00;;;;;;;16.50;15.00;;;;;;;11.80;100.00;99407.52;105086;1271;70242;-70
2022/08/12 02:35:30;;;;;;;21.30;19.20;;;;;;;11.78;100.00;99404.44;105300;1269;74374;-70
2022/08/12 02:37:59;;;;;;;21.80;19.90;;;;;;;11.76;100.00;99408.67;105282;1271;61367;-70
2022/08/12 02:40:27;;;;;;;22.80;20.70;;;;;;;11.75;100.00;99408.77;105215;1270;61372;-70
2022/08/12 02:42:58;;;;;;;22.80;20.40;;;;;;;11.73;100.00;99406.20;105268;1271;76115;-70
2022/08/12 02:45:41;;;;;;;22.30;20.30;;;;;;;11.72;100.00;99410.73;105207;1271;70634;-70
2022/08/12 02:48:13;;;;;;;20.60;18.40;;;;;;;11.70;100.00;99415.86;104962;1270;73696;-69
2022/08/12 02:50:45;;;;;;;20.30;17.50;;;;;;;11.70;100.00;99417.48;104952;1271;61262;-69
2022/08/12 02:53:13;;;;;;;17.50;15.80;;;;;;;11.69;100.00;99419.11;104909;1271;61451;-70
2022/08/12 02:55:40;;;;;;;16.40;14.80;;;;;;;11.69;100.00;99417.01;104969;1271;75514;-69
2022/08/12 02:58:08;;;;;;;18.00;16.10;;;;;;;11.67;100.00;99412.29;104924;1271;69055;-70
2022/08/12 03:00:36;;;;;;;14.40;13.10;;;;;;;11.64;100.00;99412.98;104955;1271;73728;-70
2022/08/12 03:03:09;;;;;;;12.10;10.90;;;;;;;11.60;100.00;99412.21;104663;1272;61245;-69
2022/08/12 03:05:44;;;;;;;12.20;11.00;;;;;;;11.53;100.00;99412.30;104703;1272;61885;-69
2022/08/12 03:08:14;;;;;;;12.10;11.00;;;;;;;11.48;100.00;99410.32;104675;1271;76442;-69
2022/08/12 03:10:44;;;;;;;12.00;10.80;;;;;;;11.43;100.00;99408.46;104651;1274;66790;-69
2022/08/12 03:13:14;;;;;;;13.90;12.50;;;;;;;11.38;100.00;99407.20;104927;1271;73489;-70
2022/08/12 03:15:42;;;;;;;15.40;13.80;;;;;;;11.35;100.00;99412.36;104944;1271;61429;-69
2022/08/12 03:18:26;;;;;;;15.80;14.40;;;;;;;11.34;100.00;99407.27;104920;1271;61274;-70
2022/08/12 03:20:54;;;;;;;16.20;14.70;;;;;;;11.35;100.00;99399.98;104906;1271;76208;-70
2022/08/12 03:23:22;;;;;;;17.30;14.60;;;;;;;11.34;100.00;99400.02;104955;1272;68247;-70
2022/08/12 03:25:51;;;;;;;15.30;13.80;;;;;;;11.33;100.00;99401.63;104634;1274;72716;-70
2022/08/12 03:29:05;;;;;;;16.10;14.60;;;;;;;11.32;100.00;99405.84;104934;1271;61357;-70
2022/08/12 03:31:07;;;;;;;15.50;14.00;;;;;;;11.30;100.00;99402.02;104872;1269;62520;-70
2022/08/12 03:33:37;;;;;;;16.20;14.60;;;;;;;11.29;100.00;99406.23;105011;1269;73337;-69
2022/08/12 03:36:06;;;;;;;16.30;14.80;;;;;;;11.30;100.00;99402.06;105400;1271;70313;-69
2022/08/12 03:38:37;;;;;;;15.60;13.80;;;;;;;11.32;100.00;99403.48;104988;1271;73382;-70
2022/08/12 04:00:51;;;;;;;11.00;10.00;;;;;;;12.65;100.00;99392.23;105256;1271;75490;-73
2022/08/12 04:06:08;;;;;;;9.50;8.50;;;;;;;13.83;100.00;99389.57;105206;1269;74377;-72
2022/08/12 04:08:35;;;;;;;9.00;8.10;;;;;;;14.37;100.00;99391.02;105326;1268;61307;-72
2022/08/12 04:13:49;;;;;;;7.90;7.20;;;;;;;15.61;100.00;99388.67;105258;1271;75180;-71
2022/08/12 04:16:16;;;;;;;7.40;6.50;;;;;;;16.12;100.00;99385.69;105244;1268;69738;-71
2022/08/12 04:18:43;;;;;;;8.90;7.10;;;;;;;16.62;100.00;99383.80;105240;1268;74207;-71
2022/08/12 04:21:10;;;;;;;7.00;6.30;;;;;;;17.06;100.00;99390.81;105245;1268;61370;-71
2022/08/12 04:23:43;;;;;;;6.30;5.50;;;;;;;17.59;100.00;99387.72;105003;1271;61384;-69
2022/08/12 04:26:10;;;;;;;6.10;5.60;;;;;;;18.02;100.00;99384.52;105008;1268;75481;-71
2022/08/12 04:28:36;;;;;;;6.30;5.70;;;;;;;18.32;100.00;99389.34;105005;1272;61455;-70
2022/08/12 04:31:03;;;;;;;6.70;5.40;;;;;;;18.57;100.00;99395.63;105256;1268;61176;-70
2022/08/12 04:33:31;;;;;;;5.90;5.40;;;;;;;18.79;100.00;99394.62;105249;1269;61437;-72
2022/08/12 04:35:58;;;;;;;5.50;4.90;;;;;;;18.97;100.00;99393.30;105204;1271;61345;-72
2022/08/12 04:38:25;;;;;;;5.60;5.10;;;;;;;19.05;100.00;99393.45;105188;1271;76018;-71
2022/08/12 04:40:52;;;;;;;4.80;4.40;;;;;;;18.97;100.00;99391.58;105246;1268;70416;-71
2022/08/12 04:43:19;;;;;;;5.00;4.50;;;;;;;18.77;100.00;99386.42;104956;1274;74183;-70
2022/08/12 04:45:48;;;;;;;5.80;4.90;;;;;;;18.80;100.00;99388.30;105245;1268;61240;-71
2022/08/12 04:48:15;;;;;;;5.00;4.60;;;;;;;19.09;100.00;99391.71;105248;1269;61461;-71
2022/08/12 04:50:43;;;;;;;5.70;5.10;;;;;;;19.19;100.00;99392.69;105239;1271;61434;-70
2022/08/12 04:53:12;;;;;;;4.60;4.20;;;;;;;19.34;100.00;99391.23;105270;1268;68964;-71
2022/08/12 04:55:41;;;;;;;7.50;4.60;;;;;;;19.55;100.00;99391.75;105156;1271;73910;-72
2022/08/12 04:58:09;;;;;;;8.10;4.90;;;;;;;19.69;100.00;99389.44;105323;1269;61269;-70
2022/08/12 05:00:37;;;;;;;4.40;3.90;;;;;;;19.84;100.00;99391.06;105340;1271;61255;-70
2022/08/12 05:03:05;;;;;;;6.50;6.00;;;;;;;20.19;100.00;99394.09;105250;1268;75431;-70
2022/08/12 05:05:33;;;;;;;4.20;3.80;;;;;;;20.49;100.00;99396.83;105251;1271;70362;-71
2022/08/12 05:08:00;;;;;;;4.60;4.00;;;;;;;20.34;100.00;99402.83;104983;1272;72534;-70
2022/08/12 05:10:26;;;;;;;5.00;4.30;;;;;;;20.59;100.00;99401.95;105280;1271;61269;-69
2022/08/12 05:12:59;;;;;;;4.40;3.90;;;;;;;21.14;100.00;99403.84;105251;1271;61269;-70
2022/08/12 05:15:26;;;;;;;5.10;4.70;;;;;;;21.56;100.00;99406.73;105335;1271;75190;-70
2022/08/12 05:17:54;;;;;;;4.60;3.90;;;;;;;21.93;100.00;99411.73;105254;1271;69377;-70
2022/08/12 05:20:21;;;;;;;5.40;4.90;;;;;;;22.21;100.00;99416.71;105210;1272;72326;-69
2022/08/12 05:22:49;;;;;;;4.40;4.10;;;;;;;22.47;100.00;99409.75;105255;1271;61298;-70
2022/08/12 05:25:15;;;;;;;5.40;4.70;;;;;;;22.65;100.00;99413.48;105232;1271;61144;-70
2022/08/12 05:27:44;;;;;;;5.10;4.70;;;;;;;22.81;100.00;99412.77;105245;1268;61246;-70
2022/08/12 05:30:12;;;;;;;5.00;4.60;;;;;;;23.00;100.00;99410.05;105259;1271;69080;-71
2022/08/12 05:32:38;;;;;;;4.90;4.50;;;;;;;23.08;100.00;99409.13;105389;1268;74201;-71
2022/08/12 05:35:05;;;;;;;5.40;4.90;;;;;;;22.92;100.00;99407.30;105251;1268;61195;-72
2022/08/12 05:37:33;;;;;;;7.50;4.70;;;;;;;22.98;100.00;99407.46;105260;1271;61261;-72
2022/08/12 05:40:01;;;;;;;5.20;4.70;;;;;;;23.19;100.00;99406.08;105153;1272;73850;-72
2022/08/12 05:42:28;;;;;;;5.00;4.50;;;;;;;23.46;100.00;99403.71;105338;1271;67362;-72
2022/08/12 05:44:54;;;;;;;7.50;5.60;;;;;;;23.72;100.00;99396.72;105212;1272;72319;-72
2022/08/12 05:47:21;;;;;;;9.40;6.30;;;;;;;23.93;100.00;99395.02;105065;1274;61275;-74
2022/08/12 05:49:47;;;;;;;7.90;6.70;;;;;;;23.87;100.00;99397.17;105267;1271;61327;-72
2022/08/12 05:52:14;;;;;;;11.30;7.00;;;;;;;23.98;100.00;99403.67;105234;1271;61266;-72
2022/08/12 05:54:43;;;;;;;13.50;8.90;;;;;;;24.01;100.00;99403.52;105251;1271;61268;-72
2022/08/12 05:57:11;;;;;;;15.90;11.00;;;;;;;24.07;100.00;99401.72;105208;1271;73098;-72
2022/08/12 05:59:38;;;;;;;15.60;11.30;;;;;;;24.10;100.00;99400.82;105306;1271;61419;-72
2022/08/12 06:02:06;;;;;;;13.50;10.40;;;;;;;24.06;100.00;99401.52;105235;1271;62016;-71
2022/08/12 06:04:33;;;;;;;10.00;7.60;;;;;;;23.90;100.00;99409.61;105267;1271;76290;-72
2022/08/12 06:07:06;;;;;;;8.90;8.00;;;;;;;23.89;100.00;99411.69;105353;1268;68745;-71
2022/08/12 06:09:33;;;;;;;9.50;7.00;;;;;;;24.07;100.00;99411.55;105348;1271;72677;-73
2022/08/12 06:12:00;;;;;;;6.70;6.00;;;;;;;24.12;100.00;99419.36;105258;1269;61575;-70
2022/08/12 06:14:26;;;;;;;8.20;7.40;;;;;;;24.21;100.00;99418.07;105270;1271;61122;-71
2022/08/12 06:16:54;;;;;;;6.30;5.70;;;;;;;24.22;100.00;99423.48;105231;1271;75436;-71
2022/08/12 06:19:20;;;;;;;6.50;5.90;;;;;;;24.32;100.00;99425.90;105277;1271;70500;-71
2022/08/12 06:21:47;;;;;;;5.80;5.20;;;;;;;24.46;100.00;99422.45;105191;1271;61375;-72
2022/08/12 06:24:18;;;;;;;6.10;5.10;;;;;;;24.47;100.00;99419.55;105520;1271;61364;-71
2022/08/12 06:26:45;;;;;;;5.10;4.70;;;;;;;24.31;100.00;99417.80;105402;1271;61227;-71
2022/08/12 06:29:18;;;;;;;5.00;4.50;;;;;;;24.18;100.00;99414.11;106587;1271;61132;-72
2022/08/12 06:31:49;;;;;;;5.40;4.90;;;;;;;24.16;100.00;99411.20;108024;1269;69851;-71
2022/08/12 06:34:17;;;;;;;5.10;4.70;;;;;;;24.12;100.00;99411.36;107959;1271;73404;-71
2022/08/12 06:36:45;;;;;;;5.00;4.60;;;;;;;24.07;100.00;99413.52;107493;1271;61137;-71
2022/08/12 06:39:13;;;;;;;4.60;4.20;;;;;;;24.12;100.00;99420.37;106080;1271;61907;-74
2022/08/12 06:44:25;;;;;;;5.40;4.30;;;;;;;24.02;100.00;99426.08;105233;1271;69128;-74
2022/08/12 06:46:51;;;;;;;4.50;4.10;;;;;;;23.99;100.00;99425.41;105390;1271;61207;-73
2022/08/12 06:49:18;;;;;;;5.20;4.70;;;;;;;24.02;100.00;99423.91;105349;1271;61210;-72
2022/08/12 06:51:44;;;;;;;4.90;4.40;;;;;;;23.97;100.00;99425.95;105314;1271;61348;-73
2022/08/12 06:54:11;;;;;;;5.50;5.00;;;;;;;23.92;100.00;99418.48;105289;1271;61263;-72
2022/08/12 06:56:37;;;;;;;5.30;4.90;;;;;;;23.93;100.00;99415.38;105298;1271;61296;-74
2022/08/12 06:59:04;;;;;;;5.50;5.10;;;;;;;23.90;100.00;99418.63;105221;1271;74807;-73
2022/08/12 07:01:31;;;;;;;5.30;4.90;;;;;;;23.71;100.00;99421.32;105275;1271;61323;-71
2022/08/12 07:03:58;;;;;;;6.30;5.70;;;;;;;23.57;100.00;99419.45;105236;1271;61182;-72
2022/08/12 07:06:25;;;;;;;6.00;5.50;;;;;;;23.45;100.00;99420.29;105256;1270;75288;-72
2022/08/12 07:08:52;;;;;;;6.60;6.00;;;;;;;23.21;100.00;99414.30;105270;1271;69139;-73
2022/08/12 07:11:18;;;;;;;7.40;6.70;;;;;;;22.93;100.00;99414.91;105261;1271;61273;-72
2022/08/12 07:13:49;;;;;;;6.80;6.20;;;;;;;22.71;100.00;99415.36;105213;1270;61242;-72
2022/08/12 07:16:18;;;;;;;6.90;6.40;;;;;;;22.37;100.00;99418.37;105231;1271;61367;-71
2022/08/12 07:18:49;;;;;;;7.10;6.60;;;;;;;22.10;100.00;99416.20;105100;1272;75778;-73
2022/08/12 07:21:17;;;;;;;7.30;6.70;;;;;;;22.01;100.00;99416.85;105271;1271;67328;-68
2022/08/12 07:23:44;;;;;;;7.10;6.40;;;;;;;21.92;100.00;99418.92;105228;1271;73706;-69
2022/08/12 07:26:16;;;;;;;9.50;7.30;;;;;;;21.79;100.00;99417.99;105196;1271;61382;-70
2022/08/12 07:28:43;;;;;;;7.60;7.00;;;;;;;21.67;100.00;99418.15;105251;1271;61673;-70
2022/08/12 07:31:11;;;;;;;7.80;7.10;;;;;;;21.45;100.00;99422.07;105286;1271;75895;-71
2022/08/12 07:33:40;;;;;;;7.50;6.80;;;;;;;21.37;100.00;99421.49;105267;1271;70454;-71
2022/08/12 07:36:12;;;;;;;8.70;7.40;;;;;;;21.39;100.00;99421.52;105231;1271;73353;-69
2022/08/12 07:38:45;;;;;;;7.50;6.80;;;;;;;21.33;100.00;99417.56;105278;1271;61243;-69
2022/08/12 07:41:18;;;;;;;7.20;6.60;;;;;;;21.32;100.00;99417.17;105300;1271;61295;-70
2022/08/12 07:43:52;;;;;;;7.90;7.20;;;;;;;21.36;100.00;99414.77;105243;1271;76359;-71
2022/08/12 07:46:25;;;;;;;9.10;7.00;;;;;;;21.30;100.00;99414.77;105353;1269;69773;-70
2022/08/12 07:48:54;;;;;;;7.20;6.60;;;;;;;21.19;100.00;99411.21;105235;1271;73360;-71
2022/08/12 07:51:23;;;;;;;7.60;6.80;;;;;;;21.21;100.00;99409.23;105343;1270;61248;-71
2022/08/12 07:53:50;;;;;;;8.70;7.30;;;;;;;21.18;100.00;99413.91;105279;1271;61426;-68
2022/08/12 07:56:17;;;;;;;8.10;6.40;;;;;;;21.16;100.00;99414.15;105224;1271;74806;-68
2022/08/12 07:58:44;;;;;;;7.90;7.10;;;;;;;21.31;100.00;99412.91;105048;1270;70288;-70
2022/08/12 08:01:14;;;;;;;7.80;7.00;;;;;;;21.54;100.00;99410.34;105240;1271;74125;-68
2022/08/12 08:06:31;;;;;;;8.10;7.30;;;;;;;21.74;100.00;99413.95;105272;1271;61361;-68
2022/08/12 08:09:03;;;;;;;7.80;6.90;;;;;;;21.78;100.00;99414.40;105327;1271;75062;-68
2022/08/12 08:14:15;;;;;;;8.10;7.40;;;;;;;22.04;100.00;99417.48;105026;1271;74388;-69
2022/08/12 08:16:42;;;;;;;7.30;6.70;;;;;;;22.13;100.00;99418.97;104973;1271;61263;-69
2022/08/12 08:19:14;;;;;;;7.80;6.50;;;;;;;22.15;100.00;99422.38;105029;1271;61358;-69
2022/08/12 08:21:41;;;;;;;6.60;6.10;;;;;;;22.14;100.00;99427.05;105253;1271;75141;-68
2022/08/12 08:24:13;;;;;;;9.30;6.20;;;;;;;22.13;100.00;99419.48;104922;1268;68641;-68
2022/08/12 08:26:50;;;;;;;7.20;6.50;;;;;;;22.21;100.00;99416.40;104928;1271;73223;-69
2022/08/12 08:29:20;;;;;;;6.70;6.00;;;;;;;22.37;100.00;99412.79;105255;1271;61407;-69
2022/08/12 08:31:49;;;;;;;;;;;;;;;22.49;100.00;99409.85;105243;1271;61279;-69
2022/08/12 08:34:18;;;;;;;7.60;6.50;;;;;;;22.49;100.00;99407.31;105008;1270;75153;-69
2022/08/12 08:36:45;;;;;;;7.40;6.60;;;;;;;22.45;100.00;99404.14;104957;1271;70347;-69
2022/08/12 08:39:15;;;;;;;7.00;6.30;;;;;;;22.41;100.00;99401.19;104667;1271;73344;-68
2022/08/12 08:44:27;;;;;;;11.30;6.30;;;;;;;22.43;100.00;99406.02;104932;1271;61275;-68
2022/08/12 08:46:54;;;;;;;7.50;6.50;;;;;;;22.46;100.00;99404.17;104922;1271;61504;-69
2022/08/12 08:49:24;;;;;;;7.00;6.30;;;;;;;22.36;100.00;99403.13;104920;1271;70065;-68
2022/08/12 08:51:51;;;;;;;7.00;6.40;;;;;;;22.34;100.00;99403.56;104820;1271;73281;-69
2022/08/12 08:54:17;;;;;;;6.80;6.10;;;;;;;22.40;100.00;99406.66;105247;1269;61259;-68
2022/08/12 08:56:48;;;;;;;7.00;6.40;;;;;;;22.43;100.00;99411.41;105267;1271;61268;-72
2022/08/12 08:59:21;;;;;;;6.60;6.00;;;;;;;22.36;100.00;99409.27;105126;1272;74824;-72
2022/08/12 09:01:47;;;;;;;7.70;6.70;;;;;;;22.30;100.00;99412.83;105267;1269;68155;-73
2022/08/12 09:04:14;;;;;;;9.10;6.20;;;;;;;22.35;100.00;99410.33;105242;1269;73373;-73
2022/08/12 09:06:41;;;;;;;6.40;5.60;;;;;;;22.49;100.00;99401.91;105256;1270;61241;-73
2022/08/12 09:09:09;;;;;;;5.90;5.40;;;;;;;22.67;100.00;99407.85;104999;1272;61765;-72
2022/08/12 09:14:22;;;;;;;5.30;4.90;;;;;;;22.97;100.00;99400.95;105193;1271;69361;-72
2022/08/12 09:16:49;;;;;;;8.00;5.50;;;;;;;22.87;100.00;99403.79;105010;1272;73120;-72
2022/08/12 09:19:17;;;;;;;6.60;6.00;;;;;;;22.84;100.00;99402.33;105187;1271;61262;-72
2022/08/12 09:21:47;;;;;;;6.30;5.60;;;;;;;22.86;100.00;99409.38;105238;1271;61120;-72
2022/08/12 09:24:17;;;;;;;7.10;6.50;;;;;;;22.84;100.00;99406.85;105215;1271;75373;-73
2022/08/12 09:26:45;;;;;;;;;;;;;;;22.80;100.00;99408.34;105262;1271;69388;-72
2022/08/12 09:29:19;;;;;;;5.80;5.40;;;;;;;22.78;100.00;99407.95;105260;1271;73770;-72
2022/08/12 09:31:46;;;;;;;5.90;5.40;;;;;;;22.92;100.00;99404.41;105314;1270;61351;-72
2022/08/12 09:34:14;;;;;;;6.00;5.40;;;;;;;23.02;100.00;99405.23;105290;1269;61339;-73
2022/08/12 09:36:41;;;;;;;5.70;5.10;;;;;;;23.09;100.00;99406.81;105246;1271;75318;-73
2022/08/12 09:39:08;;;;;;;7.60;5.90;;;;;;;23.28;100.00;99404.52;105466;1271;69211;-73
2022/08/12 09:41:43;;;;;;;5.20;4.70;;;;;;;23.37;100.00;99402.77;105246;1271;73392;-73
2022/08/12 09:46:56;;;;;;;6.70;6.00;;;;;;;23.51;100.00;99397.93;104312;1268;1258545;-73
2022/08/12 09:49:24;;;;;;;7.70;6.00;;;;;;;23.66;100.00;99391.80;105164;1272;72982;-73
2022/08/12 09:51:53;;;;;;;6.50;5.90;;;;;;;23.83;100.00;99392.80;105142;1271;69266;-72
2022/08/12 09:54:24;;;;;;;5.20;4.70;;;;;;;23.91;100.00;99391.70;105008;1271;72639;-72
2022/08/12 09:56:52;;;;;;;4.90;4.50;;;;;;;24.15;100.00;99385.87;105225;1271;61311;-72
2022/08/12 09:59:18;;;;;;;4.80;4.40;;;;;;;24.51;100.00;99386.21;105252;1271;61458;-72
2022/08/12 10:01:46;;;;;;;5.40;4.40;;;;;;;24.79;100.00;99384.30;105254;1271;61295;-73
2022/08/12 10:04:14;;;;;;;6.10;4.80;;;;;;;24.97;100.00;99380.07;105225;1270;70517;-73
2022/08/12 10:06:41;;;;;;;8.80;5.50;;;;;;;25.26;100.00;99379.23;105239;1271;74093;-73
2022/08/12 10:09:09;;;;;;;4.90;4.50;;;;;;;25.43;100.00;99377.72;105301;1270;61392;-72
2022/08/12 10:14:22;;;;;;;5.00;3.60;;;;;;;24.79;100.00;99374.76;105269;1271;76282;-73
2022/08/12 10:16:48;;;;;;;4.90;4.30;;;;;;;24.51;100.00;99377.29;105323;1271;61277;-72
2022/08/12 10:19:17;;;;;;;4.70;4.20;;;;;;;24.14;100.00;99376.83;105197;1271;61461;-72
2022/08/12 10:21:44;;;;;;;4.50;4.10;;;;;;;24.01;100.00;99379.64;105237;1271;61179;-72
2022/08/12 10:24:14;;;;;;;6.70;4.20;;;;;;;23.95;100.00;99367.02;105283;1271;62084;-73
2022/08/12 10:29:38;;;;;;;4.20;3.80;;;;;;;23.87;100.00;99368.69;105268;1271;70047;-73
2022/08/12 10:32:06;;;;;;;4.10;3.80;;;;;;;23.68;100.00;99367.80;105214;1271;72655;-72
2022/08/12 10:34:34;;;;;;;4.50;4.10;;;;;;;23.84;100.00;99359.32;105253;1271;61301;-72
2022/08/12 10:37:03;;;;;;;6.80;3.80;;;;;;;24.11;100.00;99348.28;105225;1270;62082;-73
2022/08/12 10:39:33;;;;;;;4.20;3.80;;;;;;;24.33;100.00;99348.05;104956;1271;74466;-73
2022/08/12 10:44:59;;;;;;;4.00;3.80;;;;;;;24.72;100.00;99344.26;105216;1269;74136;-72
2022/08/12 10:47:31;;;;;;;3.80;3.40;;;;;;;24.74;100.00;99341.83;105252;1271;61311;-72
2022/08/12 10:49:58;;;;;;;4.10;3.80;;;;;;;24.71;100.00;99336.09;105382;1271;61311;-72
2022/08/12 10:52:29;;;;;;;4.80;4.20;;;;;;;24.72;100.00;99334.85;105058;1271;75446;-72
2022/08/12 10:54:57;;;;;;;4.70;4.30;;;;;;;24.83;100.00;99334.69;105042;1271;70314;-73
2022/08/12 10:57:25;;;;;;;6.00;4.70;;;;;;;24.83;100.00;99338.80;105294;1271;73782;-72
2022/08/12 10:59:56;;;;;;;6.00;4.60;;;;;;;24.83;100.00;99333.77;105230;1271;61303;-72
2022/08/12 11:02:25;;;;;;;4.20;3.80;;;;;;;24.89;100.00;99331.64;105298;1271;62105;-72
2022/08/12 11:04:56;;;;;;;4.10;3.70;;;;;;;24.82;100.00;99330.77;105241;1271;75637;-72
2022/08/12 11:07:23;;;;;;;5.30;4.80;;;;;;;24.80;100.00;99325.71;105009;1271;69181;-73
2022/08/12 11:09:50;;;;;;;5.90;3.90;;;;;;;24.85;100.00;99321.09;105229;1268;74279;-73
2022/08/12 11:12:17;;;;;;;5.20;4.10;;;;;;;24.94;100.00;99317.84;105232;1271;61331;-72
2022/08/12 11:14:44;;;;;;;4.30;3.30;;;;;;;25.13;100.00;99314.38;105234;1271;61675;-73
2022/08/12 11:17:12;;;;;;;5.40;4.10;;;;;;;25.40;100.00;99318.02;105096;1271;76174;-73
2022/08/12 11:19:42;;;;;;;4.20;3.60;;;;;;;25.72;100.00;99314.59;105272;1272;69560;-73
2022/08/12 11:22:10;;;;;;;4.60;3.80;;;;;;;25.91;100.00;99316.77;105595;1271;73438;-73
2022/08/12 11:24:37;;;;;;;4.50;3.90;;;;;;;26.02;100.00;99322.12;105612;1271;61386;-73
2022/08/12 11:27:07;;;;;;;4.00;3.70;;;;;;;25.94;100.00;99324.02;105359;1269;61179;-71
2022/08/12 11:29:35;;;;;;;4.40;4.10;;;;;;;25.67;100.00;99332.84;105262;1271;76142;-74
2022/08/12 11:32:02;;;;;;;4.50;4.10;;;;;;;25.29;100.00;99330.64;105282;1271;69194;-73
2022/08/12 11:34:29;;;;;;;4.80;3.70;;;;;;;25.23;100.00;99333.25;105302;1269;74368;-73
2022/08/12 11:36:59;;;;;;;4.50;3.50;;;;;;;25.17;100.00;99319.33;105217;1271;61268;-72
2022/08/12 11:39:26;;;;;;;4.60;4.20;;;;;;;25.24;100.00;99321.13;105329;1270;61213;-72
2022/08/12 11:41:53;;;;;;;4.40;4.10;;;;;;;25.25;100.00;99317.46;105217;1269;75048;-73
2022/08/12 11:44:19;;;;;;;4.10;3.80;;;;;;;25.29;100.00;99313.31;105252;1268;69416;-73
2022/08/12 11:46:46;;;;;;;3.80;3.50;;;;;;;25.39;100.00;99311.94;105358;1268;71609;-73
2022/08/12 11:49:13;;;;;;;4.30;3.40;;;;;;;25.50;100.00;99311.00;105265;1270;61235;-72
2022/08/12 11:51:40;;;;;;;4.10;3.70;;;;;;;25.54;100.00;99308.83;105268;1268;61484;-72
2022/08/12 11:54:06;;;;;;;3.70;3.40;;;;;;;25.57;100.00;99305.67;105276;1268;76448;-71
2022/08/12 11:56:33;;;;;;;4.00;3.70;;;;;;;25.51;100.00;99302.80;104947;1269;69213;-71
2022/08/12 11:59:00;;;;;;;3.50;3.20;;;;;;;25.56;100.00;99299.33;105089;1269;72327;-73
2022/08/12 12:01:27;;;;;;;3.30;3.00;;;;;;;25.67;100.00;99306.50;105188;1268;61264;-73
2022/08/12 12:03:53;;;;;;;4.70;2.80;;;;;;;25.71;100.00;99304.73;105233;1268;61277;-73
2022/08/12 12:06:20;;;;;;;3.20;3.00;;;;;;;25.75;100.00;99307.23;105242;1268;75760;-72
2022/08/12 12:08:47;;;;;;;3.70;3.50;;;;;;;25.90;100.00;99307.59;104977;1268;69306;-73
2022/08/12 12:11:14;;;;;;;3.40;3.10;;;;;;;26.01;100.00;99305.44;105243;1268;73459;-72
2022/08/12 12:13:42;;;;;;;3.40;3.10;;;;;;;26.14;100.00;99305.69;105219;1268;61179;-73
2022/08/12 12:16:09;;;;;;;3.70;2.60;;;;;;;26.20;100.00;99309.19;105255;1268;61779;-73
2022/08/12 12:18:35;;;;;;;3.60;3.30;;;;;;;26.27;100.00;99304.88;105254;1268;74651;-73
2022/08/12 12:21:06;;;;;;;3.00;2.80;;;;;;;26.41;100.00;99304.17;105067;1268;67609;-73
2022/08/12 12:23:34;;;;;;;3.00;2.60;;;;;;;26.47;100.00;99300.30;105112;1272;72789;-74
2022/08/12 12:26:02;;;;;;;3.60;2.60;;;;;;;26.49;100.00;99295.88;105242;1268;61333;-74
2022/08/12 12:28:29;;;;;;;2.80;2.60;;;;;;;26.54;100.00;99290.96;105319;1268;61359;-72
2022/08/12 12:30:55;;;;;;;3.30;3.00;;;;;;;26.48;100.00;99295.05;105262;1268;76308;-73
2022/08/12 12:33:24;;;;;;;3.10;2.90;;;;;;;26.44;100.00;99288.51;105246;1268;69131;-74
2022/08/12 12:35:50;;;;;;;3.20;2.60;;;;;;;26.46;100.00;99290.82;105245;1268;72479;-74
2022/08/12 12:38:18;;;;;;;2.80;2.60;;;;;;;26.39;100.00;99281.89;105270;1268;61337;-73
2022/08/12 12:40:47;;;;;;;3.10;2.90;;;;;;;26.35;100.00;99286.62;105247;1268;61261;-71
2022/08/12 12:43:15;;;;;;;3.90;2.90;;;;;;;26.28;100.00;99286.93;105287;1268;75284;-73
2022/08/12 12:45:43;;;;;;;3.70;3.10;;;;;;;26.14;100.00;99278.96;105325;1268;69664;-73
2022/08/12 12:48:20;;;;;;;3.20;3.00;;;;;;;26.00;100.00;99277.82;105291;1268;71326;-75
2022/08/12 12:53:40;;;;;;;2.90;2.70;;;;;;;25.86;100.00;99279.36;105255;1268;62109;-71
2022/08/12 12:56:09;;;;;;;3.20;2.50;;;;;;;25.81;100.00;99275.17;105245;1271;76182;-73
2022/08/12 12:58:36;;;;;;;;;;;;;;;25.76;100.00;99266.06;105302;1268;69208;-73
2022/08/12 13:01:03;;;;;;;3.50;2.70;;;;;;;25.80;100.00;99269.55;105267;1268;74035;-72
2022/08/12 13:03:33;;;;;;;4.20;2.50;;;;;;;25.77;100.00;99263.86;105218;1271;61306;-73
2022/08/12 13:06:02;;;;;;;;;;;;;;;25.85;100.00;99259.50;105277;1271;62146;-73
2022/08/12 13:08:30;;;;;;;2.70;2.50;;;;;;;25.89;100.00;99258.63;105260;1269;75689;-72
2022/08/12 13:10:59;;;;;;;2.60;2.40;;;;;;;25.90;100.00;99252.47;105277;1268;69602;-74
2022/08/12 13:13:28;;;;;;;3.00;2.70;;;;;;;25.97;100.00;99250.13;105236;1269;72980;-72
2022/08/12 13:15:56;;;;;;;3.30;2.50;;;;;;;26.02;100.00;99248.77;105388;1269;61327;-73